Time;durP1;ratioP1;P1;durP2;ratioP2;P2;SDS_P1;SDS_P2;PMS_P1;PMS_P2;Temp;Humidity;BMP_temperature;BMP_pressure;BME280_temperature;BME280_humidity;BME280_pressure;Samples;Min_cycle;Max_cycle;Signal;HPM_P1;HPM_P2
2020/12/22 00:00:24;;;;;;;239.30;192.93;;;19.90;51.10;;;;;;483287;54;21306;-23
2020/12/22 00:00:55;;;;;;;232.45;190.43;;;19.90;51.10;;;;;;513506;54;20999;-23
2020/12/22 00:01:26;;;;;;;239.07;189.77;;;19.90;51.30;;;;;;493295;54;20940;-22
2020/12/22 00:01:57;;;;;;;232.50;186.65;;;19.90;51.30;;;;;;525504;54;20960;-23
2020/12/22 00:02:28;;;;;;;230.27;186.00;;;19.90;51.10;;;;;;475981;58;21047;-22
2020/12/22 00:02:58;;;;;;;235.85;191.70;;;19.90;51.10;;;;;;476048;58;21003;-22
2020/12/22 00:03:29;;;;;;;234.43;189.40;;;19.90;51.50;;;;;;491800;54;21399;-23
2020/12/22 00:04:00;;;;;;;234.87;187.37;;;19.90;51.20;;;;;;487259;54;21482;-21
2020/12/22 00:04:31;;;;;;;237.12;190.80;;;19.90;51.20;;;;;;476009;58;21482;-21
2020/12/22 00:05:03;;;;;;;234.10;186.20;;;19.90;51.10;;;;;;476074;58;20968;-21
2020/12/22 00:05:35;;;;;;;227.62;182.10;;;19.90;51.20;;;;;;515822;54;21467;-20
2020/12/22 00:06:06;;;;;;;227.82;185.27;;;19.90;51.10;;;;;;488620;54;21458;-18
2020/12/22 00:06:37;;;;;;;244.77;196.95;;;19.90;51.10;;;;;;520057;54;20964;-20
2020/12/22 00:07:09;;;;;;;234.65;189.93;;;19.90;51.20;;;;;;500467;54;20992;-21
2020/12/22 00:07:40;;;;;;;231.38;186.12;;;19.90;51.20;;;;;;500262;54;21036;-21
2020/12/22 00:08:13;;;;;;;238.57;193.25;;;19.90;51.20;;;;;;518995;54;21019;-22
2020/12/22 00:08:47;;;;;;;241.77;197.27;;;19.90;51.10;;;;;;496697;54;20960;-21
2020/12/22 00:09:18;;;;;;;242.43;193.68;;;19.90;51.20;;;;;;486215;54;20991;-22
2020/12/22 00:09:48;;;;;;;235.90;192.80;;;19.90;51.20;;;;;;478270;54;21059;-21
2020/12/22 00:10:19;;;;;;;232.82;188.35;;;19.90;51.20;;;;;;498290;54;20969;-20
2020/12/22 00:10:51;;;;;;;234.05;185.07;;;19.90;51.20;;;;;;496979;54;20972;-19
2020/12/22 00:11:22;;;;;;;229.27;185.45;;;19.90;51.10;;;;;;477486;54;20964;-20
2020/12/22 00:11:57;;;;;;;241.65;194.57;;;19.90;51.10;;;;;;476101;58;20940;-23
2020/12/22 00:12:28;;;;;;;242.00;195.43;;;19.90;51.00;;;;;;476042;58;21000;-22
2020/12/22 00:12:59;;;;;;;231.50;185.30;;;19.90;51.00;;;;;;481320;54;20944;-21
2020/12/22 00:13:30;;;;;;;234.65;190.15;;;19.90;51.10;;;;;;507560;54;21012;-20
2020/12/22 00:14:01;;;;;;;235.13;190.55;;;19.90;51.10;;;;;;481631;54;20984;-20
2020/12/22 00:14:32;;;;;;;234.80;192.85;;;19.90;51.10;;;;;;481968;54;20960;-22
2020/12/22 00:15:03;;;;;;;229.38;188.70;;;19.90;51.10;;;;;;508864;54;20980;-23
2020/12/22 00:15:33;;;;;;;233.63;189.40;;;19.90;51.10;;;;;;475935;56;20980;-22
2020/12/22 00:16:04;;;;;;;234.37;190.12;;;19.90;51.10;;;;;;496596;54;20988;-23
2020/12/22 00:16:36;;;;;;;235.60;187.25;;;19.90;51.10;;;;;;500553;54;21004;-21
2020/12/22 00:17:07;;;;;;;238.48;194.00;;;19.90;51.10;;;;;;479985;54;21055;-23
2020/12/22 00:17:44;;;;;;;230.18;182.57;;;19.90;51.00;;;;;;481887;54;20976;-21
2020/12/22 00:18:15;;;;;;;222.35;179.38;;;19.90;51.10;;;;;;489079;54;20932;-20
2020/12/22 00:18:47;;;;;;;228.75;189.70;;;19.90;51.10;;;;;;487066;54;21007;-24
2020/12/22 00:19:17;;;;;;;227.95;189.10;;;19.90;51.10;;;;;;498984;54;20924;-20
2020/12/22 00:19:51;;;;;;;234.02;189.43;;;19.90;51.10;;;;;;476497;55;21035;-21
2020/12/22 00:20:22;;;;;;;223.80;176.43;;;19.90;51.10;;;;;;520547;54;21012;-19
2020/12/22 00:20:53;;;;;;;230.12;182.55;;;19.90;51.00;;;;;;476142;55;21032;-17
2020/12/22 00:21:25;;;;;;;229.50;181.35;;;19.90;50.90;;;;;;501015;54;20992;-22
2020/12/22 00:21:56;;;;;;;236.12;193.20;;;19.90;50.90;;;;;;476140;58;20972;-19
2020/12/22 00:22:28;;;;;;;231.40;184.95;;;19.90;50.90;;;;;;479469;54;20936;-23
2020/12/22 00:23:00;;;;;;;234.35;188.52;;;19.90;51.10;;;;;;525593;54;20999;-23
2020/12/22 00:23:31;;;;;;;236.30;188.62;;;19.90;51.10;;;;;;501456;54;22195;-24
2020/12/22 00:24:02;;;;;;;233.32;187.85;;;19.90;51.10;;;;;;492776;54;22276;-22
2020/12/22 00:24:33;;;;;;;232.62;185.52;;;19.90;51.10;;;;;;498237;54;22213;-20
2020/12/22 00:25:05;;;;;;;229.77;184.10;;;19.90;51.10;;;;;;492589;54;21905;-23
2020/12/22 00:25:46;;;;;;;232.37;182.90;;;19.90;51.10;;;;;;478112;54;20964;-18
2020/12/22 00:26:17;;;;;;;233.32;184.90;;;19.90;50.90;;;;;;481803;54;21026;-22
2020/12/22 00:26:51;;;;;;;242.60;192.93;;;19.90;50.90;;;;;;515106;54;20928;-21
2020/12/22 00:27:22;;;;;;;227.65;182.15;;;19.90;51.00;;;;;;476022;58;20980;-22
2020/12/22 00:27:52;;;;;;;233.52;184.60;;;19.90;51.10;;;;;;503699;54;20972;-22
2020/12/22 00:28:23;;;;;;;233.30;189.30;;;19.90;51.10;;;;;;503594;54;20932;-20
2020/12/22 00:28:55;;;;;;;226.95;181.50;;;19.90;51.10;;;;;;478651;54;20987;-22
2020/12/22 00:29:25;;;;;;;235.02;189.77;;;19.90;51.00;;;;;;490157;54;21473;-18
2020/12/22 00:29:56;;;;;;;230.43;185.12;;;19.90;51.00;;;;;;476120;55;21628;-21
2020/12/22 00:30:27;;;;;;;232.90;183.85;;;19.90;51.10;;;;;;492571;54;22150;-20
2020/12/22 00:30:59;;;;;;;222.85;181.18;;;19.90;51.10;;;;;;494539;54;21366;-20
2020/12/22 00:31:35;;;;;;;232.70;185.30;;;19.90;51.00;;;;;;519404;54;21407;-19
2020/12/22 00:32:06;;;;;;;229.40;184.37;;;19.90;51.00;;;;;;513136;54;20975;-22
2020/12/22 00:32:37;;;;;;;232.95;183.75;;;19.90;50.90;;;;;;488363;54;21060;-22
2020/12/22 00:33:08;;;;;;;230.20;183.87;;;19.90;50.90;;;;;;519873;54;20987;-21
2020/12/22 00:33:38;;;;;;;221.60;178.57;;;19.90;51.00;;;;;;515543;54;21446;-22
2020/12/22 00:34:09;;;;;;;235.38;187.18;;;19.90;51.00;;;;;;492955;54;20958;-21
2020/12/22 00:34:40;;;;;;;231.07;186.93;;;19.90;50.90;;;;;;493643;54;21158;-20
2020/12/22 00:35:11;;;;;;;231.90;183.93;;;19.90;51.60;;;;;;493071;54;21740;-21
2020/12/22 00:35:42;;;;;;;228.25;182.00;;;19.90;50.90;;;;;;497055;54;21004;-23
2020/12/22 00:36:13;;;;;;;226.73;183.60;;;19.90;50.90;;;;;;519233;54;20956;-18
2020/12/22 00:36:47;;;;;;;230.85;185.23;;;19.90;50.90;;;;;;494603;54;20972;-18
2020/12/22 00:37:18;;;;;;;234.48;187.73;;;19.90;50.90;;;;;;489148;54;21437;-21
2020/12/22 00:37:48;;;;;;;232.23;182.98;;;19.90;50.90;;;;;;476105;58;20936;-22
2020/12/22 00:38:19;;;;;;;235.60;187.18;;;19.90;51.10;;;;;;511654;54;20932;-22
2020/12/22 00:38:52;;;;;;;223.13;178.43;;;19.90;51.30;;;;;;516456;54;21450;-19
2020/12/22 00:39:23;;;;;;;231.82;183.23;;;19.90;50.90;;;;;;476305;55;20968;-15
2020/12/22 00:39:54;;;;;;;222.55;176.68;;;19.90;51.50;;;;;;514360;54;20972;-20
2020/12/22 00:40:28;;;;;;;226.93;178.35;;;19.90;50.80;;;;;;489163;54;20936;-21
2020/12/22 00:40:59;;;;;;;228.80;179.50;;;19.90;50.80;;;;;;476037;58;20989;-20
2020/12/22 00:41:29;;;;;;;231.73;180.80;;;19.90;50.90;;;;;;498163;54;20956;-17
2020/12/22 00:42:03;;;;;;;228.55;183.73;;;19.90;51.00;;;;;;485681;54;20996;-17
2020/12/22 00:42:34;;;;;;;214.57;166.27;;;19.90;51.00;;;;;;496004;54;21490;-21
2020/12/22 00:43:05;;;;;;;223.48;176.27;;;19.90;50.80;;;;;;498257;54;20948;-20
2020/12/22 00:43:36;;;;;;;233.57;184.43;;;19.90;50.80;;;;;;485251;54;21426;-17
2020/12/22 00:44:07;;;;;;;225.45;178.10;;;19.90;50.80;;;;;;478632;54;20948;-16
2020/12/22 00:44:38;;;;;;;234.52;187.80;;;19.90;51.10;;;;;;525577;54;21011;-22
2020/12/22 00:45:09;;;;;;;233.00;185.43;;;19.90;50.80;;;;;;482376;54;20932;-23
2020/12/22 00:45:40;;;;;;;228.93;182.37;;;19.90;50.90;;;;;;476012;58;21530;-22
2020/12/22 00:46:15;;;;;;;231.23;182.45;;;19.90;50.90;;;;;;525520;54;20976;-23
2020/12/22 00:46:46;;;;;;;224.15;176.63;;;19.90;50.90;;;;;;525345;54;20932;-18
2020/12/22 00:47:19;;;;;;;215.12;172.20;;;19.90;50.90;;;;;;500595;54;20928;-23
2020/12/22 00:47:49;;;;;;;224.30;180.85;;;19.90;50.80;;;;;;476231;58;21023;-17
2020/12/22 00:48:20;;;;;;;227.05;181.40;;;19.90;50.80;;;;;;495255;54;20913;-22
2020/12/22 00:48:52;;;;;;;227.95;179.65;;;19.90;50.80;;;;;;502492;54;20933;-20
2020/12/22 00:49:23;;;;;;;228.55;178.45;;;19.90;50.80;;;;;;501376;54;20988;-20
2020/12/22 00:49:54;;;;;;;232.02;183.20;;;19.90;50.80;;;;;;525488;54;21015;-17
2020/12/22 00:50:25;;;;;;;226.93;179.73;;;19.90;51.40;;;;;;476130;58;21004;-18
2020/12/22 00:50:56;;;;;;;226.88;183.37;;;19.90;50.90;;;;;;500491;54;21065;-21
2020/12/22 00:51:30;;;;;;;229.77;179.18;;;19.90;50.90;;;;;;519010;54;20932;-19
2020/12/22 00:52:01;;;;;;;229.77;184.07;;;19.90;50.90;;;;;;496298;54;21011;-19
2020/12/22 00:52:32;;;;;;;227.65;187.18;;;19.90;50.90;;;;;;475990;58;21035;-18
2020/12/22 00:53:03;;;;;;;228.57;179.43;;;19.90;50.80;;;;;;497144;54;21024;-20
2020/12/22 00:53:33;;;;;;;219.70;171.70;;;19.90;50.80;;;;;;476019;58;20948;-21
2020/12/22 00:54:04;;;;;;;230.05;178.30;;;19.90;50.80;;;;;;481578;54;20932;-20
2020/12/22 00:54:35;;;;;;;228.48;178.38;;;19.90;50.80;;;;;;499072;54;20961;-18
2020/12/22 00:55:09;;;;;;;228.07;181.82;;;19.90;50.80;;;;;;490277;54;20932;-18
2020/12/22 00:55:40;;;;;;;229.50;182.32;;;19.90;50.80;;;;;;481153;54;21087;-19
2020/12/22 00:56:11;;;;;;;226.77;181.48;;;19.90;50.90;;;;;;482487;54;20968;-21
2020/12/22 00:56:47;;;;;;;227.50;176.00;;;19.90;50.80;;;;;;481942;54;20996;-23
2020/12/22 00:57:18;;;;;;;220.40;172.73;;;19.90;50.80;;;;;;525611;54;20984;-22
2020/12/22 00:57:52;;;;;;;228.23;181.27;;;19.90;50.80;;;;;;503138;54;20948;-23
2020/12/22 00:58:27;;;;;;;226.23;184.27;;;19.90;50.80;;;;;;498115;54;20932;-22
2020/12/22 00:58:58;;;;;;;221.27;174.43;;;19.90;50.80;;;;;;493996;54;21500;-22
2020/12/22 00:59:29;;;;;;;222.77;177.48;;;19.90;50.90;;;;;;477101;54;21446;-21
2020/12/22 01:00:00;;;;;;;228.05;180.07;;;19.90;50.90;;;;;;475976;58;21418;-17
2020/12/22 01:00:31;;;;;;;228.15;181.40;;;19.90;50.80;;;;;;490853;54;21443;-23
2020/12/22 01:01:03;;;;;;;231.55;181.20;;;19.90;50.80;;;;;;498782;54;20940;-19
2020/12/22 01:01:35;;;;;;;226.62;181.15;;;19.90;50.80;;;;;;479422;54;20976;-18
2020/12/22 01:02:07;;;;;;;227.82;179.30;;;19.90;50.90;;;;;;499252;54;21059;-18
2020/12/22 01:02:38;;;;;;;233.63;184.10;;;19.90;50.90;;;;;;476014;58;20968;-17
2020/12/22 01:03:09;;;;;;;224.30;174.18;;;19.90;50.80;;;;;;525517;54;20952;-21
2020/12/22 01:03:40;;;;;;;231.00;183.23;;;19.90;50.80;;;;;;476304;58;20996;-20
2020/12/22 01:04:10;;;;;;;230.10;181.05;;;19.90;50.80;;;;;;501774;54;20928;-21
2020/12/22 01:04:41;;;;;;;225.10;178.35;;;19.90;51.40;;;;;;476577;54;20980;-25
2020/12/22 01:05:15;;;;;;;227.13;179.30;;;19.90;50.90;;;;;;511000;54;21076;-24
2020/12/22 01:05:47;;;;;;;215.48;170.93;;;19.90;50.80;;;;;;500994;54;21040;-20
2020/12/22 01:06:18;;;;;;;214.52;166.52;;;19.90;50.70;;;;;;476150;58;20956;-22
2020/12/22 01:06:49;;;;;;;223.18;174.10;;;19.90;50.70;;;;;;476125;56;20928;-21
2020/12/22 01:07:20;;;;;;;222.98;173.73;;;19.90;50.70;;;;;;478917;54;20944;-20
2020/12/22 01:07:51;;;;;;;223.40;177.25;;;19.90;50.80;;;;;;489913;54;20940;-21
2020/12/22 01:08:22;;;;;;;223.87;179.68;;;19.90;50.70;;;;;;478894;54;20972;-20
2020/12/22 01:08:53;;;;;;;234.25;183.55;;;19.90;50.80;;;;;;484222;54;20988;-20
2020/12/22 01:09:23;;;;;;;226.12;180.10;;;19.90;50.70;;;;;;476309;54;20956;-20
2020/12/22 01:09:54;;;;;;;222.95;178.50;;;19.90;50.80;;;;;;483145;54;20988;-20
2020/12/22 01:10:25;;;;;;;213.40;168.00;;;19.90;50.80;;;;;;485143;54;21038;-19
2020/12/22 01:10:56;;;;;;;225.70;180.10;;;19.90;50.80;;;;;;525126;54;20936;-20
2020/12/22 01:11:31;;;;;;;229.13;181.05;;;19.90;50.80;;;;;;487533;54;20944;-20
2020/12/22 01:12:03;;;;;;;220.35;173.82;;;19.90;50.80;;;;;;475954;58;21004;-17
2020/12/22 01:12:34;;;;;;;225.80;180.45;;;19.90;50.70;;;;;;497252;54;20948;-22
2020/12/22 01:13:05;;;;;;;222.45;175.62;;;19.90;50.70;;;;;;508047;54;20952;-20
2020/12/22 01:13:36;;;;;;;228.35;176.60;;;19.90;50.90;;;;;;510306;54;21845;-20
2020/12/22 01:14:07;;;;;;;220.57;174.35;;;19.90;50.90;;;;;;484903;54;21642;-20
2020/12/22 01:14:38;;;;;;;224.30;174.77;;;19.90;50.80;;;;;;496641;54;21490;-21
2020/12/22 01:15:09;;;;;;;220.00;174.48;;;19.90;50.70;;;;;;475998;58;22354;-20
2020/12/22 01:15:40;;;;;;;219.10;167.30;;;19.90;50.80;;;;;;518603;54;21315;-21
2020/12/22 01:16:12;;;;;;;225.82;176.43;;;19.90;50.70;;;;;;510907;54;20949;-20
2020/12/22 01:16:43;;;;;;;226.02;177.00;;;19.90;50.70;;;;;;492416;54;20963;-21
2020/12/22 01:17:13;;;;;;;224.15;175.07;;;19.90;50.80;;;;;;490334;54;20968;-20
2020/12/22 01:17:44;;;;;;;222.00;176.73;;;19.90;50.80;;;;;;476015;58;20983;-22
2020/12/22 01:18:15;;;;;;;217.35;171.60;;;19.90;50.70;;;;;;518041;54;21015;-20
2020/12/22 01:18:46;;;;;;;222.32;173.32;;;19.90;50.70;;;;;;495766;54;20964;-22
2020/12/22 01:19:17;;;;;;;217.32;167.55;;;19.90;50.70;;;;;;495311;54;21107;-21
2020/12/22 01:19:48;;;;;;;229.15;181.90;;;19.90;50.80;;;;;;520592;54;21019;-18
2020/12/22 01:20:19;;;;;;;223.25;175.50;;;19.90;50.70;;;;;;476017;58;21398;-15
2020/12/22 01:20:50;;;;;;;223.57;175.55;;;19.90;50.70;;;;;;525653;54;21036;-19
2020/12/22 01:21:21;;;;;;;220.55;174.35;;;19.90;50.70;;;;;;525659;54;20944;-21
2020/12/22 01:21:53;;;;;;;225.43;173.20;;;19.90;50.70;;;;;;495301;54;20996;-21
2020/12/22 01:22:24;;;;;;;221.50;175.52;;;19.90;50.70;;;;;;490785;54;20956;-21
2020/12/22 01:22:55;;;;;;;227.93;181.10;;;19.90;50.80;;;;;;525384;54;21019;-20
2020/12/22 01:23:26;;;;;;;218.57;170.55;;;19.90;50.80;;;;;;494652;54;20972;-21
2020/12/22 01:23:56;;;;;;;226.25;174.32;;;19.90;50.80;;;;;;496123;54;20924;-20
2020/12/22 01:24:27;;;;;;;214.75;170.82;;;19.90;50.70;;;;;;481943;54;21012;-19
2020/12/22 01:24:58;;;;;;;222.50;172.27;;;19.90;50.70;;;;;;483020;54;20989;-21
2020/12/22 01:25:29;;;;;;;221.50;176.73;;;19.90;50.70;;;;;;475991;58;21387;-20
2020/12/22 01:26:00;;;;;;;213.05;168.52;;;19.90;50.70;;;;;;476005;58;20952;-18
2020/12/22 01:26:31;;;;;;;225.15;174.52;;;19.90;50.70;;;;;;486942;54;20983;-19
2020/12/22 01:27:02;;;;;;;227.23;176.40;;;19.90;50.70;;;;;;500123;54;21517;-18
2020/12/22 01:27:33;;;;;;;221.98;172.80;;;19.90;50.70;;;;;;475907;58;21394;-18
2020/12/22 01:28:05;;;;;;;216.40;170.38;;;19.90;50.70;;;;;;495808;54;20952;-18
2020/12/22 01:28:35;;;;;;;215.40;168.90;;;19.90;51.20;;;;;;476027;58;21537;-18
2020/12/22 01:29:06;;;;;;;224.10;174.70;;;19.80;50.60;;;;;;516604;54;20956;-18
2020/12/22 01:29:37;;;;;;;226.45;175.70;;;19.90;50.60;;;;;;499531;54;21263;-17
2020/12/22 01:30:09;;;;;;;221.20;173.20;;;19.90;50.70;;;;;;499928;54;21024;-19
2020/12/22 01:30:40;;;;;;;225.35;179.50;;;19.80;50.70;;;;;;494099;54;20948;-19
2020/12/22 01:31:11;;;;;;;220.43;172.43;;;19.90;50.70;;;;;;476029;58;20984;-18
2020/12/22 01:31:42;;;;;;;218.52;170.15;;;19.80;50.70;;;;;;476010;58;20929;-19
2020/12/22 01:32:13;;;;;;;223.35;171.62;;;19.80;50.60;;;;;;496430;54;20912;-18
2020/12/22 01:32:46;;;;;;;218.02;170.87;;;19.90;50.60;;;;;;493759;54;20916;-19
2020/12/22 01:33:19;;;;;;;219.57;173.07;;;19.90;50.60;;;;;;525584;54;20938;-21
2020/12/22 01:33:51;;;;;;;219.37;175.43;;;19.90;50.60;;;;;;512555;54;21043;-21
2020/12/22 01:34:21;;;;;;;214.15;169.73;;;19.90;50.60;;;;;;476039;58;20959;-21
2020/12/22 01:34:52;;;;;;;227.40;177.15;;;19.90;50.60;;;;;;493718;54;20928;-21
2020/12/22 01:35:23;;;;;;;220.12;174.52;;;19.80;50.50;;;;;;497854;54;20928;-20
2020/12/22 01:35:54;;;;;;;210.38;162.85;;;19.80;50.70;;;;;;475964;56;20980;-20
2020/12/22 01:36:30;;;;;;;222.68;176.43;;;19.90;50.60;;;;;;512288;54;20976;-22
2020/12/22 01:37:01;;;;;;;214.25;168.82;;;19.80;50.50;;;;;;487178;54;21042;-22
2020/12/22 01:37:32;;;;;;;225.70;177.62;;;19.90;50.60;;;;;;493717;54;20928;-22
2020/12/22 01:38:03;;;;;;;216.40;168.15;;;19.90;50.60;;;;;;503272;54;20924;-22
2020/12/22 01:38:34;;;;;;;212.65;162.25;;;19.90;50.60;;;;;;486949;54;20936;-22
2020/12/22 01:39:05;;;;;;;220.82;169.85;;;19.80;50.60;;;;;;488161;54;21431;-17
2020/12/22 01:39:36;;;;;;;223.57;170.90;;;19.90;50.60;;;;;;476116;55;20932;-18
2020/12/22 01:40:07;;;;;;;223.23;173.32;;;19.90;50.70;;;;;;476082;58;20984;-21
2020/12/22 01:40:38;;;;;;;222.43;174.27;;;19.80;50.60;;;;;;500875;54;20976;-22
2020/12/22 01:41:08;;;;;;;221.48;168.40;;;19.90;50.60;;;;;;476196;55;20999;-22
2020/12/22 01:41:39;;;;;;;215.45;167.27;;;19.90;50.60;;;;;;525499;54;20916;-22
2020/12/22 01:42:10;;;;;;;213.12;166.00;;;19.90;50.60;;;;;;478472;54;21418;-22
2020/12/22 01:42:42;;;;;;;221.95;172.73;;;19.90;50.70;;;;;;480921;54;20929;-22
2020/12/22 01:43:13;;;;;;;229.05;177.98;;;19.80;50.60;;;;;;489398;54;20935;-22
2020/12/22 01:44:21;;;;;;;214.07;165.68;;;19.80;50.50;;;;;;481027;54;20972;-22
2020/12/22 01:44:56;;;;;;;221.07;172.48;;;19.90;50.60;;;;;;476141;58;20979;-21
2020/12/22 01:45:27;;;;;;;217.20;168.25;;;19.80;50.50;;;;;;498146;54;21024;-18
2020/12/22 01:45:58;;;;;;;212.32;162.20;;;19.90;50.60;;;;;;492326;54;21071;-19
2020/12/22 01:46:33;;;;;;;219.80;170.23;;;19.90;50.70;;;;;;486362;54;21019;-19
2020/12/22 01:47:04;;;;;;;222.27;173.57;;;19.90;50.60;;;;;;491731;54;21099;-21
2020/12/22 01:47:35;;;;;;;226.37;174.43;;;19.90;50.50;;;;;;478685;54;22293;-22
2020/12/22 01:48:08;;;;;;;217.07;169.45;;;19.90;50.60;;;;;;525534;54;21413;-23
2020/12/22 01:48:39;;;;;;;217.70;168.43;;;19.90;50.60;;;;;;501143;54;20976;-22
2020/12/22 01:49:23;;;;;;;217.05;168.27;;;19.80;50.50;;;;;;476134;55;20991;-20
2020/12/22 01:49:55;;;;;;;223.18;172.60;;;19.90;50.60;;;;;;476190;55;20931;-19
2020/12/22 01:50:26;;;;;;;219.52;169.82;;;19.90;50.60;;;;;;523572;54;20984;-18
2020/12/22 01:51:00;;;;;;;219.95;172.30;;;19.80;50.50;;;;;;476089;58;21028;-19
2020/12/22 01:51:31;;;;;;;218.70;167.90;;;19.80;50.50;;;;;;521293;54;21012;-19
2020/12/22 01:52:03;;;;;;;218.20;170.12;;;19.80;50.60;;;;;;498045;54;21007;-20
2020/12/22 01:52:34;;;;;;;213.98;162.70;;;19.90;50.70;;;;;;495637;54;21024;-21
2020/12/22 01:53:05;;;;;;;220.90;167.75;;;19.90;50.50;;;;;;522045;54;20960;-20
2020/12/22 01:53:36;;;;;;;215.77;165.93;;;19.90;50.50;;;;;;476019;58;20949;-19
2020/12/22 01:54:10;;;;;;;219.37;172.45;;;19.90;50.50;;;;;;496762;54;20988;-18
2020/12/22 01:54:41;;;;;;;222.75;171.57;;;19.90;50.50;;;;;;495075;54;21035;-21
2020/12/22 01:55:12;;;;;;;218.60;171.65;;;19.90;50.50;;;;;;475952;58;20984;-18
2020/12/22 01:55:44;;;;;;;219.35;169.52;;;19.90;50.50;;;;;;491023;54;21019;-19
2020/12/22 01:56:15;;;;;;;212.60;163.62;;;19.90;50.40;;;;;;489642;54;20928;-19
2020/12/22 01:56:46;;;;;;;217.25;166.30;;;19.90;50.40;;;;;;499547;54;20924;-17
2020/12/22 01:57:17;;;;;;;218.88;169.30;;;19.90;50.50;;;;;;484057;54;21035;-19
2020/12/22 01:57:51;;;;;;;221.43;172.70;;;19.90;50.40;;;;;;484845;54;21024;-24
2020/12/22 01:58:21;;;;;;;226.85;174.10;;;19.90;50.60;;;;;;484587;54;21597;-21
2020/12/22 01:58:52;;;;;;;220.40;170.05;;;19.90;50.60;;;;;;506870;54;21494;-30
2020/12/22 01:59:23;;;;;;;211.95;162.32;;;19.80;50.50;;;;;;485398;54;21427;-18
2020/12/22 01:59:54;;;;;;;223.38;171.15;;;19.80;50.40;;;;;;481561;54;20924;-23
2020/12/22 02:00:25;;;;;;;217.10;166.37;;;19.90;50.50;;;;;;475987;58;20928;-23
2020/12/22 02:00:56;;;;;;;218.68;166.30;;;19.80;50.40;;;;;;478232;54;21075;-20
2020/12/22 02:01:32;;;;;;;219.27;169.55;;;19.80;50.50;;;;;;475899;58;20980;-22
2020/12/22 02:02:02;;;;;;;222.45;169.80;;;19.90;50.60;;;;;;476192;58;20983;-17
2020/12/22 02:02:34;;;;;;;211.60;162.73;;;19.80;50.60;;;;;;478532;54;21016;-23
2020/12/22 02:03:06;;;;;;;217.35;166.40;;;19.80;50.60;;;;;;525763;54;21390;-23
2020/12/22 02:03:39;;;;;;;213.18;163.68;;;19.90;50.60;;;;;;496646;54;20992;-21
2020/12/22 02:04:11;;;;;;;211.43;165.23;;;19.90;50.50;;;;;;495598;54;21403;-21
2020/12/22 02:04:42;;;;;;;217.57;170.23;;;19.80;50.40;;;;;;497967;54;20972;-19
2020/12/22 02:05:13;;;;;;;211.05;165.15;;;19.90;50.50;;;;;;499474;54;20944;-19
2020/12/22 02:05:45;;;;;;;218.10;165.50;;;19.90;50.50;;;;;;501388;54;20940;-22
2020/12/22 02:06:19;;;;;;;215.85;159.93;;;19.90;50.50;;;;;;501070;54;20924;-20
2020/12/22 02:06:50;;;;;;;218.00;167.13;;;19.90;50.50;;;;;;496713;54;20995;-22
2020/12/22 02:07:21;;;;;;;220.73;170.38;;;19.80;50.50;;;;;;485189;54;21450;-21
2020/12/22 02:07:52;;;;;;;215.70;168.32;;;19.90;50.40;;;;;;476072;55;20958;-22
2020/12/22 02:08:23;;;;;;;222.12;167.65;;;19.80;50.50;;;;;;513206;54;20999;-16
2020/12/22 02:08:54;;;;;;;210.50;161.43;;;19.80;50.50;;;;;;488302;54;20921;-22
2020/12/22 02:09:25;;;;;;;220.57;169.60;;;19.80;50.40;;;;;;489958;54;20940;-20
2020/12/22 02:09:56;;;;;;;212.95;159.35;;;19.80;50.50;;;;;;476095;58;21774;-22
2020/12/22 02:10:27;;;;;;;212.68;161.73;;;19.90;50.40;;;;;;477696;54;21015;-21
2020/12/22 02:10:58;;;;;;;215.77;164.07;;;19.80;50.30;;;;;;504555;54;20968;-21
2020/12/22 02:11:30;;;;;;;219.68;166.40;;;19.90;50.40;;;;;;491563;54;21008;-21
2020/12/22 02:12:03;;;;;;;221.82;171.35;;;19.90;50.40;;;;;;478952;54;21453;-22
2020/12/22 02:12:40;;;;;;;214.88;163.50;;;19.80;50.40;;;;;;475866;58;20947;-22
2020/12/22 02:13:11;;;;;;;217.52;165.15;;;19.80;50.40;;;;;;493721;54;20964;-20
2020/12/22 02:13:42;;;;;;;204.35;154.02;;;19.90;50.40;;;;;;475939;58;20956;-20
2020/12/22 02:14:13;;;;;;;216.45;169.10;;;19.80;50.30;;;;;;504169;54;21027;-21
2020/12/22 02:14:45;;;;;;;216.15;165.82;;;19.80;50.30;;;;;;503868;54;20932;-18
2020/12/22 02:15:16;;;;;;;217.55;167.52;;;19.80;50.40;;;;;;496980;54;20912;-18
2020/12/22 02:15:50;;;;;;;218.02;168.95;;;19.80;50.50;;;;;;522715;54;20992;-20
2020/12/22 02:16:21;;;;;;;218.80;172.80;;;19.80;50.40;;;;;;476064;55;21104;-21
2020/12/22 02:16:52;;;;;;;213.10;163.75;;;19.90;50.40;;;;;;495097;54;21024;-22
2020/12/22 02:17:23;;;;;;;211.50;166.25;;;19.80;50.40;;;;;;497393;54;21027;-18
2020/12/22 02:17:54;;;;;;;208.60;162.02;;;19.80;50.30;;;;;;491231;54;21011;-20
2020/12/22 02:18:28;;;;;;;214.60;165.60;;;19.90;50.40;;;;;;499211;54;21422;-20
2020/12/22 02:18:59;;;;;;;210.05;163.80;;;19.80;50.30;;;;;;494382;54;21016;-21
2020/12/22 02:19:29;;;;;;;217.48;165.90;;;19.90;50.40;;;;;;497880;54;20932;-17
2020/12/22 02:20:01;;;;;;;212.35;161.57;;;19.90;50.50;;;;;;495207;54;20976;-18
2020/12/22 02:20:33;;;;;;;206.00;157.82;;;19.90;50.40;;;;;;499391;54;20955;-20
2020/12/22 02:21:04;;;;;;;201.02;157.68;;;19.90;50.30;;;;;;484319;54;21003;-21
2020/12/22 02:21:35;;;;;;;211.35;161.60;;;19.80;50.20;;;;;;500177;54;20928;-22
2020/12/22 02:22:09;;;;;;;210.05;161.12;;;19.90;50.30;;;;;;476155;58;20952;-19
2020/12/22 02:22:40;;;;;;;216.65;163.65;;;19.80;50.30;;;;;;523671;54;21480;-21
2020/12/22 02:23:12;;;;;;;200.62;151.75;;;19.90;50.40;;;;;;504955;54;21423;-18
2020/12/22 02:23:44;;;;;;;208.40;154.05;;;19.80;50.30;;;;;;480453;54;21517;-20
2020/12/22 02:24:16;;;;;;;200.27;154.30;;;19.90;50.30;;;;;;497455;54;20915;-20
2020/12/22 02:24:47;;;;;;;207.68;158.02;;;19.80;50.20;;;;;;496688;54;21056;-20
2020/12/22 02:25:18;;;;;;;216.05;167.57;;;19.90;50.40;;;;;;489071;54;20964;-20
2020/12/22 02:25:50;;;;;;;206.98;158.37;;;19.80;50.30;;;;;;476250;58;20936;-20
2020/12/22 02:26:23;;;;;;;219.18;166.95;;;19.80;50.40;;;;;;510073;54;21438;-20
2020/12/22 02:26:54;;;;;;;210.77;158.30;;;19.80;50.40;;;;;;496655;54;20987;-21
2020/12/22 02:27:24;;;;;;;209.35;161.80;;;19.90;50.50;;;;;;482424;54;20924;-20
2020/12/22 02:27:58;;;;;;;213.32;158.63;;;19.80;50.40;;;;;;500549;54;20929;-19
2020/12/22 02:28:29;;;;;;;210.00;163.62;;;19.80;50.40;;;;;;497065;54;21421;-21
2020/12/22 02:29:00;;;;;;;208.13;161.50;;;19.80;50.40;;;;;;491497;54;21415;-19
2020/12/22 02:29:31;;;;;;;209.02;159.25;;;19.80;50.40;;;;;;479908;54;21458;-20
2020/12/22 02:30:05;;;;;;;206.63;158.23;;;19.80;50.40;;;;;;479189;54;20944;-18
2020/12/22 02:30:36;;;;;;;200.70;152.70;;;19.90;50.40;;;;;;495975;54;20913;-22
2020/12/22 02:31:09;;;;;;;211.10;163.55;;;19.80;50.30;;;;;;485815;54;20920;-20
2020/12/22 02:31:39;;;;;;;212.50;159.35;;;19.80;50.20;;;;;;508758;54;20912;-19
2020/12/22 02:32:10;;;;;;;214.80;166.35;;;19.80;50.20;;;;;;497284;54;20912;-19
2020/12/22 02:32:41;;;;;;;210.73;164.07;;;19.80;50.30;;;;;;498749;54;21095;-19
2020/12/22 02:33:13;;;;;;;206.70;156.12;;;19.80;50.30;;;;;;476266;58;21048;-19
2020/12/22 02:33:46;;;;;;;217.13;164.82;;;19.90;50.40;;;;;;485670;54;21039;-19
2020/12/22 02:34:17;;;;;;;210.00;159.30;;;19.80;50.30;;;;;;494473;54;21442;-20
2020/12/22 02:34:48;;;;;;;210.60;162.07;;;19.80;50.40;;;;;;495048;54;20976;-18
2020/12/22 02:35:19;;;;;;;208.65;162.37;;;19.80;50.30;;;;;;499383;54;20967;-21
2020/12/22 02:35:50;;;;;;;206.05;154.25;;;19.80;50.30;;;;;;478675;54;22170;-21
2020/12/22 02:36:21;;;;;;;212.02;159.73;;;19.90;50.30;;;;;;503923;54;20964;-22
2020/12/22 02:36:52;;;;;;;207.80;162.15;;;19.90;50.40;;;;;;479083;54;21016;-21
2020/12/22 02:37:22;;;;;;;208.48;156.37;;;19.90;50.40;;;;;;505172;54;21391;-22
2020/12/22 02:37:53;;;;;;;202.45;154.10;;;19.80;50.30;;;;;;480295;54;21000;-18
2020/12/22 02:38:26;;;;;;;206.10;156.37;;;19.80;50.20;;;;;;476017;58;21427;-19
2020/12/22 02:38:57;;;;;;;209.60;158.40;;;19.80;50.20;;;;;;496394;54;20964;-22